sensor_id;sensor_type;location;lat;lon;timestamp;temperature;humidity
24224;DHT22;12359;49.716;9.212;2023-07-31T00:00:49;17.90;99.90
24224;DHT22;12359;49.716;9.212;2023-07-31T00:03:14;17.90;1.00
24224;DHT22;12359;49.716;9.212;2023-07-31T00:05:40;17.90;99.90
24224;DHT22;12359;49.716;9.212;2023-07-31T00:08:06;17.90;99.90
24224;DHT22;12359;49.716;9.212;2023-07-31T00:10:31;17.80;1.00
24224;DHT22;12359;49.716;9.212;2023-07-31T00:12:57;17.80;1.00
24224;DHT22;12359;49.716;9.212;2023-07-31T00:15:23;17.80;1.00
24224;DHT22;12359;49.716;9.212;2023-07-31T00:17:48;17.80;99.90
24224;DHT22;12359;49.716;9.212;2023-07-31T00:20:14;17.80;17.10
24224;DHT22;12359;49.716;9.212;2023-07-31T00:22:40;17.80;92.60
24224;DHT22;12359;49.716;9.212;2023-07-31T00:25:05;17.80;99.90
24224;DHT22;12359;49.716;9.212;2023-07-31T00:27:32;17.80;99.90
24224;DHT22;12359;49.716;9.212;2023-07-31T00:29:58;17.90;1.00
24224;DHT22;12359;49.716;9.212;2023-07-31T00:32:23;17.90;99.90
24224;DHT22;12359;49.716;9.212;2023-07-31T00:34:49;17.90;38.50
24224;DHT22;12359;49.716;9.212;2023-07-31T00:37:15;18.00;99.90
24224;DHT22;12359;49.716;9.212;2023-07-31T00:39:41;17.90;1.00
24224;DHT22;12359;49.716;9.212;2023-07-31T00:42:06;18.00;1.00
24224;DHT22;12359;49.716;9.212;2023-07-31T00:44:32;17.90;99.90
24224;DHT22;12359;49.716;9.212;2023-07-31T00:46:58;18.00;1.00
24224;DHT22;12359;49.716;9.212;2023-07-31T00:49:25;18.00;4.40
24224;DHT22;12359;49.716;9.212;2023-07-31T00:51:51;18.10;1.00
24224;DHT22;12359;49.716;9.212;2023-07-31T00:54:17;18.20;1.00
24224;DHT22;12359;49.716;9.212;2023-07-31T00:56:45;18.20;1.00
24224;DHT22;12359;49.716;9.212;2023-07-31T00:59:11;18.30;99.90
24224;DHT22;12359;49.716;9.212;2023-07-31T01:01:37;18.30;99.90
24224;DHT22;12359;49.716;9.212;2023-07-31T01:04:03;18.40;3.00
24224;DHT22;12359;49.716;9.212;2023-07-31T01:09:03;18.40;1.00
24224;DHT22;12359;49.716;9.212;2023-07-31T01:11:52;18.50;99.90
24224;DHT22;12359;49.716;9.212;2023-07-31T01:14:18;18.50;99.90
24224;DHT22;12359;49.716;9.212;2023-07-31T01:16:43;18.50;99.90
24224;DHT22;12359;49.716;9.212;2023-07-31T01:19:10;18.60;52.70
24224;DHT22;12359;49.716;9.212;2023-07-31T01:24:41;18.60;1.00
24224;DHT22;12359;49.716;9.212;2023-07-31T01:27:20;18.70;1.00
24224;DHT22;12359;49.716;9.212;2023-07-31T01:29:56;18.70;99.90
24224;DHT22;12359;49.716;9.212;2023-07-31T01:32:25;18.70;99.90
24224;DHT22;12359;49.716;9.212;2023-07-31T01:34:53;18.80;99.90
24224;DHT22;12359;49.716;9.212;2023-07-31T01:37:19;18.90;99.90
24224;DHT22;12359;49.716;9.212;2023-07-31T01:39:45;18.80;99.90
24224;DHT22;12359;49.716;9.212;2023-07-31T01:42:11;18.90;99.90
24224;DHT22;12359;49.716;9.212;2023-07-31T01:44:36;18.90;99.90
24224;DHT22;12359;49.716;9.212;2023-07-31T01:47:02;18.90;99.90
24224;DHT22;12359;49.716;9.212;2023-07-31T01:49:28;19.00;99.90
24224;DHT22;12359;49.716;9.212;2023-07-31T01:51:53;19.00;99.90
24224;DHT22;12359;49.716;9.212;2023-07-31T01:54:19;19.00;99.90
24224;DHT22;12359;49.716;9.212;2023-07-31T01:56:45;19.00;99.90
24224;DHT22;12359;49.716;9.212;2023-07-31T01:59:10;19.10;99.90
24224;DHT22;12359;49.716;9.212;2023-07-31T02:01:36;19.10;99.90
24224;DHT22;12359;49.716;9.212;2023-07-31T02:04:02;19.10;99.90
24224;DHT22;12359;49.716;9.212;2023-07-31T02:06:28;19.10;99.90
24224;DHT22;12359;49.716;9.212;2023-07-31T02:08:53;19.10;99.90
24224;DHT22;12359;49.716;9.212;2023-07-31T02:11:19;19.10;66.80
24224;DHT22;12359;49.716;9.212;2023-07-31T02:13:45;19.10;80.60
24224;DHT22;12359;49.716;9.212;2023-07-31T02:16:10;19.10;48.10
24224;DHT22;12359;49.716;9.212;2023-07-31T02:18:36;19.10;45.60
24224;DHT22;12359;49.716;9.212;2023-07-31T02:21:02;19.20;50.40
24224;DHT22;12359;49.716;9.212;2023-07-31T02:23:27;19.10;56.60
24224;DHT22;12359;49.716;9.212;2023-07-31T02:25:53;19.10;99.90
24224;DHT22;12359;49.716;9.212;2023-07-31T02:28:19;19.10;99.90
24224;DHT22;12359;49.716;9.212;2023-07-31T02:30:45;19.10;97.30
24224;DHT22;12359;49.716;9.212;2023-07-31T02:33:14;19.10;82.30
24224;DHT22;12359;49.716;9.212;2023-07-31T02:35:40;19.10;57.30
24224;DHT22;12359;49.716;9.212;2023-07-31T02:38:06;19.10;81.00
24224;DHT22;12359;49.716;9.212;2023-07-31T02:40:31;19.10;15.00
24224;DHT22;12359;49.716;9.212;2023-07-31T02:42:57;19.10;1.00
24224;DHT22;12359;49.716;9.212;2023-07-31T02:45:22;19.20;1.00
24224;DHT22;12359;49.716;9.212;2023-07-31T02:47:48;19.20;14.90
24224;DHT22;12359;49.716;9.212;2023-07-31T02:50:14;19.20;18.70
24224;DHT22;12359;49.716;9.212;2023-07-31T02:52:39;19.20;32.20
24224;DHT22;12359;49.716;9.212;2023-07-31T02:55:06;19.20;1.00
24224;DHT22;12359;49.716;9.212;2023-07-31T02:57:32;19.20;1.00
24224;DHT22;12359;49.716;9.212;2023-07-31T02:59:57;19.10;1.00
24224;DHT22;12359;49.716;9.212;2023-07-31T03:02:23;19.10;6.60
24224;DHT22;12359;49.716;9.212;2023-07-31T03:04:49;19.10;1.00
24224;DHT22;12359;49.716;9.212;2023-07-31T03:07:14;19.10;9.40
24224;DHT22;12359;49.716;9.212;2023-07-31T03:09:46;19.10;22.30
24224;DHT22;12359;49.716;9.212;2023-07-31T03:12:11;19.00;1.00
24224;DHT22;12359;49.716;9.212;2023-07-31T03:14:37;19.00;35.20
24224;DHT22;12359;49.716;9.212;2023-07-31T03:17:03;19.00;5.50
24224;DHT22;12359;49.716;9.212;2023-07-31T03:19:31;19.00;19.50
24224;DHT22;12359;49.716;9.212;2023-07-31T03:21:57;19.00;22.20
24224;DHT22;12359;49.716;9.212;2023-07-31T03:24:23;19.00;46.10
24224;DHT22;12359;49.716;9.212;2023-07-31T03:26:48;19.00;24.00
24224;DHT22;12359;49.716;9.212;2023-07-31T03:29:14;19.00;27.90
24224;DHT22;12359;49.716;9.212;2023-07-31T03:31:40;18.90;44.00
24224;DHT22;12359;49.716;9.212;2023-07-31T03:34:05;18.90;24.90
24224;DHT22;12359;49.716;9.212;2023-07-31T03:36:31;19.00;48.60
24224;DHT22;12359;49.716;9.212;2023-07-31T03:38:57;18.90;43.40
24224;DHT22;12359;49.716;9.212;2023-07-31T03:41:23;18.90;52.90
24224;DHT22;12359;49.716;9.212;2023-07-31T03:43:50;18.90;96.50
24224;DHT22;12359;49.716;9.212;2023-07-31T03:46:18;18.90;96.60
24224;DHT22;12359;49.716;9.212;2023-07-31T03:48:44;19.00;99.90
24224;DHT22;12359;49.716;9.212;2023-07-31T03:51:10;18.90;99.90
24224;DHT22;12359;49.716;9.212;2023-07-31T03:53:36;18.90;99.90
24224;DHT22;12359;49.716;9.212;2023-07-31T03:56:01;18.90;99.90
24224;DHT22;12359;49.716;9.212;2023-07-31T03:58:27;18.90;99.90
24224;DHT22;12359;49.716;9.212;2023-07-31T04:00:53;18.90;99.90
24224;DHT22;12359;49.716;9.212;2023-07-31T04:03:18;18.90;99.90
24224;DHT22;12359;49.716;9.212;2023-07-31T04:05:44;18.90;97.30
24224;DHT22;12359;49.716;9.212;2023-07-31T04:08:10;18.90;99.90
24224;DHT22;12359;49.716;9.212;2023-07-31T04:10:35;18.90;99.90
24224;DHT22;12359;49.716;9.212;2023-07-31T04:13:01;18.80;82.00
24224;DHT22;12359;49.716;9.212;2023-07-31T04:15:27;18.90;87.80
24224;DHT22;12359;49.716;9.212;2023-07-31T04:17:52;18.90;99.90
24224;DHT22;12359;49.716;9.212;2023-07-31T04:20:18;18.90;99.90
24224;DHT22;12359;49.716;9.212;2023-07-31T04:22:44;18.80;99.90
24224;DHT22;12359;49.716;9.212;2023-07-31T04:25:09;18.80;99.90
24224;DHT22;12359;49.716;9.212;2023-07-31T04:27:35;18.80;99.90
24224;DHT22;12359;49.716;9.212;2023-07-31T04:30:01;18.90;99.90
24224;DHT22;12359;49.716;9.212;2023-07-31T04:32:26;18.80;99.90
24224;DHT22;12359;49.716;9.212;2023-07-31T04:34:52;18.90;99.90
24224;DHT22;12359;49.716;9.212;2023-07-31T04:37:18;18.80;99.90
24224;DHT22;12359;49.716;9.212;2023-07-31T04:39:43;18.80;99.90
24224;DHT22;12359;49.716;9.212;2023-07-31T04:42:09;18.90;99.90
24224;DHT22;12359;49.716;9.212;2023-07-31T04:44:35;18.90;99.90
24224;DHT22;12359;49.716;9.212;2023-07-31T04:47:01;18.90;99.90
24224;DHT22;12359;49.716;9.212;2023-07-31T04:49:27;18.90;99.90
24224;DHT22;12359;49.716;9.212;2023-07-31T04:51:53;18.90;99.90
24224;DHT22;12359;49.716;9.212;2023-07-31T04:54:19;18.80;99.90
24224;DHT22;12359;49.716;9.212;2023-07-31T04:56:44;18.90;99.90
24224;DHT22;12359;49.716;9.212;2023-07-31T04:59:10;19.00;99.90
24224;DHT22;12359;49.716;9.212;2023-07-31T05:01:36;19.10;99.90
24224;DHT22;12359;49.716;9.212;2023-07-31T05:04:01;19.10;99.00
24224;DHT22;12359;49.716;9.212;2023-07-31T05:06:27;19.20;99.90
24224;DHT22;12359;49.716;9.212;2023-07-31T05:08:53;19.20;99.90
24224;DHT22;12359;49.716;9.212;2023-07-31T05:11:19;19.30;99.90
24224;DHT22;12359;49.716;9.212;2023-07-31T05:13:44;19.40;99.90
24224;DHT22;12359;49.716;9.212;2023-07-31T05:16:10;19.50;98.30
24224;DHT22;12359;49.716;9.212;2023-07-31T05:18:36;19.50;98.80
24224;DHT22;12359;49.716;9.212;2023-07-31T05:21:01;19.50;55.50
24224;DHT22;12359;49.716;9.212;2023-07-31T05:23:27;19.50;53.80
24224;DHT22;12359;49.716;9.212;2023-07-31T05:25:53;19.60;70.10
24224;DHT22;12359;49.716;9.212;2023-07-31T05:28:18;19.60;87.00
24224;DHT22;12359;49.716;9.212;2023-07-31T05:30:44;19.70;99.90
24224;DHT22;12359;49.716;9.212;2023-07-31T05:33:10;19.70;31.00
24224;DHT22;12359;49.716;9.212;2023-07-31T05:35:35;19.80;29.70
24224;DHT22;12359;49.716;9.212;2023-07-31T05:38:01;19.80;51.30
24224;DHT22;12359;49.716;9.212;2023-07-31T05:40:27;19.90;44.30
24224;DHT22;12359;49.716;9.212;2023-07-31T05:42:52;19.90;49.10
24224;DHT22;12359;49.716;9.212;2023-07-31T05:45:18;19.90;48.90
24224;DHT22;12359;49.716;9.212;2023-07-31T05:47:44;20.00;33.00
24224;DHT22;12359;49.716;9.212;2023-07-31T05:50:09;20.00;14.70
24224;DHT22;12359;49.716;9.212;2023-07-31T05:52:35;20.00;7.00
24224;DHT22;12359;49.716;9.212;2023-07-31T05:55:01;20.10;20.70
24224;DHT22;12359;49.716;9.212;2023-07-31T05:57:26;20.10;9.80
24224;DHT22;12359;49.716;9.212;2023-07-31T05:59:52;20.10;16.50
24224;DHT22;12359;49.716;9.212;2023-07-31T06:02:19;20.10;1.00
24224;DHT22;12359;49.716;9.212;2023-07-31T06:04:44;20.10;1.00
24224;DHT22;12359;49.716;9.212;2023-07-31T06:07:10;20.10;1.00
24224;DHT22;12359;49.716;9.212;2023-07-31T06:09:36;20.20;1.00
24224;DHT22;12359;49.716;9.212;2023-07-31T06:12:02;20.30;1.00
24224;DHT22;12359;49.716;9.212;2023-07-31T06:14:28;20.40;1.00
24224;DHT22;12359;49.716;9.212;2023-07-31T06:16:53;20.40;1.00
24224;DHT22;12359;49.716;9.212;2023-07-31T06:19:19;20.40;1.00
24224;DHT22;12359;49.716;9.212;2023-07-31T06:21:45;20.50;1.00
24224;DHT22;12359;49.716;9.212;2023-07-31T06:24:11;20.60;1.00
24224;DHT22;12359;49.716;9.212;2023-07-31T06:26:37;20.60;1.00
24224;DHT22;12359;49.716;9.212;2023-07-31T06:29:03;20.60;1.00
24224;DHT22;12359;49.716;9.212;2023-07-31T06:31:29;20.60;1.00
24224;DHT22;12359;49.716;9.212;2023-07-31T06:33:54;20.60;1.00
24224;DHT22;12359;49.716;9.212;2023-07-31T06:36:20;20.60;1.00
24224;DHT22;12359;49.716;9.212;2023-07-31T06:38:46;20.60;1.00
24224;DHT22;12359;49.716;9.212;2023-07-31T06:41:11;20.70;1.00
24224;DHT22;12359;49.716;9.212;2023-07-31T06:43:37;20.70;1.00
24224;DHT22;12359;49.716;9.212;2023-07-31T06:46:06;20.70;1.00
24224;DHT22;12359;49.716;9.212;2023-07-31T06:48:33;20.80;1.00
24224;DHT22;12359;49.716;9.212;2023-07-31T06:51:00;20.80;1.00
24224;DHT22;12359;49.716;9.212;2023-07-31T06:53:26;21.00;1.00
24224;DHT22;12359;49.716;9.212;2023-07-31T06:55:51;21.00;1.00
24224;DHT22;12359;49.716;9.212;2023-07-31T06:58:17;21.00;99.90
24224;DHT22;12359;49.716;9.212;2023-07-31T07:00:43;21.20;1.00
24224;DHT22;12359;49.716;9.212;2023-07-31T07:03:09;21.30;99.90
24224;DHT22;12359;49.716;9.212;2023-07-31T07:05:35;21.30;99.90
24224;DHT22;12359;49.716;9.212;2023-07-31T07:08:00;21.40;99.90
24224;DHT22;12359;49.716;9.212;2023-07-31T07:10:26;21.40;99.90
24224;DHT22;12359;49.716;9.212;2023-07-31T07:12:52;21.20;99.90
24224;DHT22;12359;49.716;9.212;2023-07-31T07:15:18;21.20;99.90
24224;DHT22;12359;49.716;9.212;2023-07-31T07:17:43;21.10;99.90
24224;DHT22;12359;49.716;9.212;2023-07-31T07:20:09;21.20;99.90
24224;DHT22;12359;49.716;9.212;2023-07-31T07:22:35;21.30;99.90
24224;DHT22;12359;49.716;9.212;2023-07-31T07:25:01;21.40;99.90
24224;DHT22;12359;49.716;9.212;2023-07-31T07:27:27;21.60;99.90
24224;DHT22;12359;49.716;9.212;2023-07-31T07:29:53;21.80;99.90
24224;DHT22;12359;49.716;9.212;2023-07-31T07:32:19;21.90;99.90
24224;DHT22;12359;49.716;9.212;2023-07-31T07:34:44;22.40;99.90
24224;DHT22;12359;49.716;9.212;2023-07-31T07:37:11;22.80;99.90
24224;DHT22;12359;49.716;9.212;2023-07-31T07:39:36;23.10;99.90
24224;DHT22;12359;49.716;9.212;2023-07-31T07:42:02;23.20;99.90
24224;DHT22;12359;49.716;9.212;2023-07-31T07:44:31;23.20;99.90
24224;DHT22;12359;49.716;9.212;2023-07-31T07:46:57;23.20;99.90
24224;DHT22;12359;49.716;9.212;2023-07-31T07:49:23;22.90;99.90
24224;DHT22;12359;49.716;9.212;2023-07-31T07:51:49;23.10;99.90
24224;DHT22;12359;49.716;9.212;2023-07-31T07:54:15;23.50;99.90
24224;DHT22;12359;49.716;9.212;2023-07-31T07:56:42;24.20;99.90
24224;DHT22;12359;49.716;9.212;2023-07-31T07:59:08;24.40;99.90
24224;DHT22;12359;49.716;9.212;2023-07-31T08:01:34;24.70;99.90
24224;DHT22;12359;49.716;9.212;2023-07-31T08:04:00;25.00;99.90
24224;DHT22;12359;49.716;9.212;2023-07-31T08:06:26;25.80;55.50
24224;DHT22;12359;49.716;9.212;2023-07-31T08:08:52;26.30;10.20
24224;DHT22;12359;49.716;9.212;2023-07-31T08:11:17;26.50;1.00
24224;DHT22;12359;49.716;9.212;2023-07-31T08:13:43;26.80;1.00
24224;DHT22;12359;49.716;9.212;2023-07-31T08:16:09;26.40;1.00
24224;DHT22;12359;49.716;9.212;2023-07-31T08:18:35;26.20;1.00
24224;DHT22;12359;49.716;9.212;2023-07-31T08:21:02;26.10;1.00
24224;DHT22;12359;49.716;9.212;2023-07-31T08:23:28;25.80;1.00
24224;DHT22;12359;49.716;9.212;2023-07-31T08:25:54;25.70;1.00
24224;DHT22;12359;49.716;9.212;2023-07-31T08:28:19;25.40;1.00
24224;DHT22;12359;49.716;9.212;2023-07-31T08:30:45;25.40;1.00
24224;DHT22;12359;49.716;9.212;2023-07-31T08:33:11;25.80;1.00
24224;DHT22;12359;49.716;9.212;2023-07-31T08:35:36;26.40;1.00
24224;DHT22;12359;49.716;9.212;2023-07-31T08:38:02;26.60;1.00
24224;DHT22;12359;49.716;9.212;2023-07-31T08:40:29;26.40;1.00
24224;DHT22;12359;49.716;9.212;2023-07-31T08:42:55;26.50;1.00
24224;DHT22;12359;49.716;9.212;2023-07-31T08:45:28;26.30;1.00
24224;DHT22;12359;49.716;9.212;2023-07-31T08:47:55;26.10;1.00
24224;DHT22;12359;49.716;9.212;2023-07-31T08:50:22;25.40;1.00
24224;DHT22;12359;49.716;9.212;2023-07-31T08:52:50;25.00;1.00
24224;DHT22;12359;49.716;9.212;2023-07-31T08:55:17;24.90;1.00
24224;DHT22;12359;49.716;9.212;2023-07-31T08:57:43;24.90;1.00
24224;DHT22;12359;49.716;9.212;2023-07-31T09:00:10;25.10;1.00
24224;DHT22;12359;49.716;9.212;2023-07-31T09:02:46;26.10;1.00
24224;DHT22;12359;49.716;9.212;2023-07-31T09:05:14;26.90;1.00
24224;DHT22;12359;49.716;9.212;2023-07-31T09:07:42;27.50;1.00
24224;DHT22;12359;49.716;9.212;2023-07-31T09:10:11;28.10;1.00
24224;DHT22;12359;49.716;9.212;2023-07-31T09:12:38;28.30;1.00
24224;DHT22;12359;49.716;9.212;2023-07-31T09:15:04;28.00;1.00
24224;DHT22;12359;49.716;9.212;2023-07-31T09:17:32;28.10;1.00
24224;DHT22;12359;49.716;9.212;2023-07-31T09:19:59;28.00;1.00
24224;DHT22;12359;49.716;9.212;2023-07-31T09:22:38;27.90;1.00
24224;DHT22;12359;49.716;9.212;2023-07-31T09:30:14;28.20;1.00
24224;DHT22;12359;49.716;9.212;2023-07-31T09:32:40;27.90;1.00
24224;DHT22;12359;49.716;9.212;2023-07-31T09:35:28;28.20;1.00
24224;DHT22;12359;49.716;9.212;2023-07-31T09:37:57;28.50;1.00
24224;DHT22;12359;49.716;9.212;2023-07-31T09:40:31;28.40;1.00
24224;DHT22;12359;49.716;9.212;2023-07-31T09:42:59;28.10;1.00
24224;DHT22;12359;49.716;9.212;2023-07-31T09:45:26;28.60;1.00
24224;DHT22;12359;49.716;9.212;2023-07-31T09:47:52;29.10;1.00
24224;DHT22;12359;49.716;9.212;2023-07-31T09:50:19;29.10;1.00
24224;DHT22;12359;49.716;9.212;2023-07-31T09:52:49;29.50;1.00
24224;DHT22;12359;49.716;9.212;2023-07-31T09:55:24;29.90;99.90
24224;DHT22;12359;49.716;9.212;2023-07-31T09:57:50;30.30;99.90
24224;DHT22;12359;49.716;9.212;2023-07-31T10:00:18;29.80;99.90
24224;DHT22;12359;49.716;9.212;2023-07-31T10:02:47;29.20;99.90
24224;DHT22;12359;49.716;9.212;2023-07-31T10:05:16;29.00;99.90
24224;DHT22;12359;49.716;9.212;2023-07-31T10:07:51;29.30;99.90
24224;DHT22;12359;49.716;9.212;2023-07-31T10:10:22;29.40;99.90
24224;DHT22;12359;49.716;9.212;2023-07-31T10:12:49;29.30;99.90
24224;DHT22;12359;49.716;9.212;2023-07-31T10:15:16;28.70;99.90
24224;DHT22;12359;49.716;9.212;2023-07-31T10:17:42;28.50;99.90
24224;DHT22;12359;49.716;9.212;2023-07-31T10:20:09;28.30;99.90
24224;DHT22;12359;49.716;9.212;2023-07-31T10:22:35;28.00;99.90
24224;DHT22;12359;49.716;9.212;2023-07-31T10:25:01;27.30;99.90
24224;DHT22;12359;49.716;9.212;2023-07-31T10:27:27;27.00;99.90
24224;DHT22;12359;49.716;9.212;2023-07-31T10:29:55;26.90;99.90
24224;DHT22;12359;49.716;9.212;2023-07-31T10:32:22;26.90;99.90
24224;DHT22;12359;49.716;9.212;2023-07-31T10:34:50;26.60;99.90
24224;DHT22;12359;49.716;9.212;2023-07-31T10:45:27;26.80;99.90
24224;DHT22;12359;49.716;9.212;2023-07-31T10:48:22;27.30;99.90
24224;DHT22;12359;49.716;9.212;2023-07-31T10:50:56;27.50;99.90
24224;DHT22;12359;49.716;9.212;2023-07-31T10:53:26;27.50;99.90
24224;DHT22;12359;49.716;9.212;2023-07-31T10:55:52;27.50;99.90
24224;DHT22;12359;49.716;9.212;2023-07-31T10:58:19;27.60;99.90
24224;DHT22;12359;49.716;9.212;2023-07-31T11:00:46;28.00;99.90
24224;DHT22;12359;49.716;9.212;2023-07-31T11:03:19;28.30;99.90
24224;DHT22;12359;49.716;9.212;2023-07-31T11:06:02;28.30;99.90
24224;DHT22;12359;49.716;9.212;2023-07-31T11:08:33;28.70;99.90
24224;DHT22;12359;49.716;9.212;2023-07-31T11:13:47;28.80;99.90
24224;DHT22;12359;49.716;9.212;2023-07-31T11:16:17;29.20;99.90
24224;DHT22;12359;49.716;9.212;2023-07-31T11:18:44;29.50;99.90
24224;DHT22;12359;49.716;9.212;2023-07-31T11:21:14;29.30;99.90
24224;DHT22;12359;49.716;9.212;2023-07-31T11:23:41;29.10;99.90
24224;DHT22;12359;49.716;9.212;2023-07-31T11:26:07;28.70;99.90
24224;DHT22;12359;49.716;9.212;2023-07-31T11:28:34;28.20;99.90
24224;DHT22;12359;49.716;9.212;2023-07-31T11:31:01;27.90;99.90
24224;DHT22;12359;49.716;9.212;2023-07-31T11:33:27;27.40;99.90
24224;DHT22;12359;49.716;9.212;2023-07-31T11:35:53;26.70;99.90
24224;DHT22;12359;49.716;9.212;2023-07-31T11:40:50;25.50;99.90
24224;DHT22;12359;49.716;9.212;2023-07-31T11:43:17;25.40;99.90
24224;DHT22;12359;49.716;9.212;2023-07-31T11:45:51;25.40;99.90
24224;DHT22;12359;49.716;9.212;2023-07-31T11:50:51;25.90;99.90
24224;DHT22;12359;49.716;9.212;2023-07-31T11:53:23;26.00;99.90
24224;DHT22;12359;49.716;9.212;2023-07-31T11:55:50;26.00;99.90
24224;DHT22;12359;49.716;9.212;2023-07-31T11:58:17;25.80;99.90
24224;DHT22;12359;49.716;9.212;2023-07-31T12:00:43;26.00;99.90
24224;DHT22;12359;49.716;9.212;2023-07-31T12:03:10;26.30;99.90
24224;DHT22;12359;49.716;9.212;2023-07-31T12:05:37;26.20;99.90
24224;DHT22;12359;49.716;9.212;2023-07-31T12:08:10;26.10;99.90
24224;DHT22;12359;49.716;9.212;2023-07-31T12:10:37;26.00;99.90
24224;DHT22;12359;49.716;9.212;2023-07-31T12:15:43;25.40;99.90
24224;DHT22;12359;49.716;9.212;2023-07-31T12:18:11;25.20;99.90
24224;DHT22;12359;49.716;9.212;2023-07-31T12:20:44;25.00;1.00
24224;DHT22;12359;49.716;9.212;2023-07-31T12:23:19;24.80;1.00
24224;DHT22;12359;49.716;9.212;2023-07-31T12:26:07;24.60;1.00
24224;DHT22;12359;49.716;9.212;2023-07-31T12:28:54;24.40;1.00
24224;DHT22;12359;49.716;9.212;2023-07-31T12:31:23;24.40;1.00
24224;DHT22;12359;49.716;9.212;2023-07-31T12:33:50;24.60;1.00
24224;DHT22;12359;49.716;9.212;2023-07-31T12:36:21;24.60;1.00
24224;DHT22;12359;49.716;9.212;2023-07-31T12:38:47;24.60;1.00
24224;DHT22;12359;49.716;9.212;2023-07-31T12:41:13;24.70;1.00
24224;DHT22;12359;49.716;9.212;2023-07-31T12:43:40;25.00;1.00
24224;DHT22;12359;49.716;9.212;2023-07-31T12:46:07;25.20;1.00
24224;DHT22;12359;49.716;9.212;2023-07-31T12:48:34;25.30;1.00
24224;DHT22;12359;49.716;9.212;2023-07-31T12:51:00;25.30;1.00
24224;DHT22;12359;49.716;9.212;2023-07-31T12:53:25;25.20;1.00
24224;DHT22;12359;49.716;9.212;2023-07-31T12:55:51;25.10;1.00
24224;DHT22;12359;49.716;9.212;2023-07-31T12:58:17;25.20;1.00
24224;DHT22;12359;49.716;9.212;2023-07-31T13:00:43;25.40;1.00
24224;DHT22;12359;49.716;9.212;2023-07-31T13:03:08;25.50;1.00
24224;DHT22;12359;49.716;9.212;2023-07-31T13:05:34;25.50;1.00
24224;DHT22;12359;49.716;9.212;2023-07-31T13:08:00;25.40;1.00
24224;DHT22;12359;49.716;9.212;2023-07-31T13:10:27;25.40;1.00
24224;DHT22;12359;49.716;9.212;2023-07-31T13:12:54;25.40;1.00
24224;DHT22;12359;49.716;9.212;2023-07-31T13:15:20;25.50;1.00
24224;DHT22;12359;49.716;9.212;2023-07-31T13:17:46;25.60;1.00
24224;DHT22;12359;49.716;9.212;2023-07-31T13:20:12;25.70;1.00
24224;DHT22;12359;49.716;9.212;2023-07-31T13:22:38;25.60;1.00
24224;DHT22;12359;49.716;9.212;2023-07-31T13:25:03;25.30;1.00
24224;DHT22;12359;49.716;9.212;2023-07-31T13:27:29;25.20;1.00
24224;DHT22;12359;49.716;9.212;2023-07-31T13:29:55;25.20;1.00
24224;DHT22;12359;49.716;9.212;2023-07-31T13:32:21;25.10;1.00
24224;DHT22;12359;49.716;9.212;2023-07-31T13:34:47;25.10;1.00
24224;DHT22;12359;49.716;9.212;2023-07-31T13:37:13;25.10;1.00
24224;DHT22;12359;49.716;9.212;2023-07-31T13:39:39;25.20;1.00
24224;DHT22;12359;49.716;9.212;2023-07-31T13:42:06;25.10;1.00
24224;DHT22;12359;49.716;9.212;2023-07-31T13:44:36;25.20;1.00
24224;DHT22;12359;49.716;9.212;2023-07-31T13:47:02;25.20;1.00
24224;DHT22;12359;49.716;9.212;2023-07-31T13:49:29;25.40;1.00
24224;DHT22;12359;49.716;9.212;2023-07-31T13:51:55;25.50;1.00
24224;DHT22;12359;49.716;9.212;2023-07-31T13:54:23;25.70;1.00
24224;DHT22;12359;49.716;9.212;2023-07-31T13:56:49;25.80;1.00
24224;DHT22;12359;49.716;9.212;2023-07-31T13:59:15;25.90;1.00
24224;DHT22;12359;49.716;9.212;2023-07-31T14:01:43;25.90;1.00
24224;DHT22;12359;49.716;9.212;2023-07-31T14:04:08;25.90;1.00
24224;DHT22;12359;49.716;9.212;2023-07-31T14:06:34;25.80;1.00
24224;DHT22;12359;49.716;9.212;2023-07-31T14:09:00;25.60;1.00
24224;DHT22;12359;49.716;9.212;2023-07-31T14:11:26;25.60;1.00
24224;DHT22;12359;49.716;9.212;2023-07-31T14:13:52;25.60;1.00
24224;DHT22;12359;49.716;9.212;2023-07-31T14:16:18;25.60;1.00
24224;DHT22;12359;49.716;9.212;2023-07-31T14:18:44;25.60;1.00
24224;DHT22;12359;49.716;9.212;2023-07-31T14:21:11;25.50;1.00
24224;DHT22;12359;49.716;9.212;2023-07-31T14:23:37;25.50;1.00
24224;DHT22;12359;49.716;9.212;2023-07-31T14:26:03;25.60;1.00
24224;DHT22;12359;49.716;9.212;2023-07-31T14:28:28;25.80;1.00
24224;DHT22;12359;49.716;9.212;2023-07-31T14:30:55;25.90;1.00
24224;DHT22;12359;49.716;9.212;2023-07-31T14:33:21;26.00;1.00
24224;DHT22;12359;49.716;9.212;2023-07-31T14:35:46;26.00;1.00
24224;DHT22;12359;49.716;9.212;2023-07-31T14:38:12;26.10;1.00
24224;DHT22;12359;49.716;9.212;2023-07-31T14:40:38;26.20;1.00
24224;DHT22;12359;49.716;9.212;2023-07-31T14:43:04;26.00;1.00
24224;DHT22;12359;49.716;9.212;2023-07-31T14:45:29;26.00;1.00
24224;DHT22;12359;49.716;9.212;2023-07-31T14:47:55;26.10;1.00
24224;DHT22;12359;49.716;9.212;2023-07-31T14:50:21;26.00;1.00
24224;DHT22;12359;49.716;9.212;2023-07-31T14:52:48;26.10;1.00
24224;DHT22;12359;49.716;9.212;2023-07-31T14:55:13;26.10;1.00
24224;DHT22;12359;49.716;9.212;2023-07-31T14:57:39;26.10;1.00
24224;DHT22;12359;49.716;9.212;2023-07-31T15:00:05;26.10;1.00
24224;DHT22;12359;49.716;9.212;2023-07-31T15:02:39;26.00;1.00
24224;DHT22;12359;49.716;9.212;2023-07-31T15:05:05;25.90;1.00
24224;DHT22;12359;49.716;9.212;2023-07-31T15:07:32;25.80;1.00
24224;DHT22;12359;49.716;9.212;2023-07-31T15:09:58;25.70;1.00
24224;DHT22;12359;49.716;9.212;2023-07-31T15:12:24;25.40;1.00
24224;DHT22;12359;49.716;9.212;2023-07-31T15:14:50;25.10;1.00
24224;DHT22;12359;49.716;9.212;2023-07-31T15:17:17;25.00;1.00
24224;DHT22;12359;49.716;9.212;2023-07-31T15:19:43;25.10;1.00
24224;DHT22;12359;49.716;9.212;2023-07-31T15:22:09;25.10;1.00
24224;DHT22;12359;49.716;9.212;2023-07-31T15:24:34;24.90;1.00
24224;DHT22;12359;49.716;9.212;2023-07-31T15:27:00;24.90;1.00
24224;DHT22;12359;49.716;9.212;2023-07-31T15:29:28;24.90;1.00
24224;DHT22;12359;49.716;9.212;2023-07-31T15:31:54;24.70;1.00
24224;DHT22;12359;49.716;9.212;2023-07-31T15:34:20;24.50;1.00
24224;DHT22;12359;49.716;9.212;2023-07-31T15:36:46;24.40;1.00
24224;DHT22;12359;49.716;9.212;2023-07-31T15:39:12;24.30;1.00
24224;DHT22;12359;49.716;9.212;2023-07-31T15:41:38;24.20;1.00
24224;DHT22;12359;49.716;9.212;2023-07-31T15:44:07;24.20;1.00
24224;DHT22;12359;49.716;9.212;2023-07-31T15:46:33;24.30;1.00
24224;DHT22;12359;49.716;9.212;2023-07-31T15:48:59;24.30;1.00
24224;DHT22;12359;49.716;9.212;2023-07-31T15:51:25;24.20;1.00
24224;DHT22;12359;49.716;9.212;2023-07-31T15:53:51;24.10;1.00
24224;DHT22;12359;49.716;9.212;2023-07-31T15:56:17;24.00;1.00
24224;DHT22;12359;49.716;9.212;2023-07-31T15:58:43;23.90;1.00
24224;DHT22;12359;49.716;9.212;2023-07-31T16:01:09;23.90;1.00
24224;DHT22;12359;49.716;9.212;2023-07-31T16:03:34;23.80;1.00